Villa Grove, CO

7:35 PM MDT on July 04, 2015 (GMT -0600)
Monarch Pass | | Change Station
CLOSE
Current Station
Airport
Location: Monarch Pass,
Elevation: 12031 ft
Nearby Weather Stations

Elev 12031 ft 38.48 °N, 106.32 °W | Updated 1 hour ago

Overcast
Overcast
54 °F
Feels Like 54 °F
N
20
Wind Variable Wind from ENE
Gusts 28 mph

Today
High -- | Low -- °F
--% Chance of Precip.
Yesterday
High -- | Low -- °F
Precip. -- in
5:46 AM 8:31 PM
Waning Gibbous, 89% visible
Pressure 30.65 in
Visibility 10.0 miles
Clouds Mostly Cloudy 6000 ft
Overcast 8500 ft
Dew Point 43 °F
Humidity 67%
Rainfall 0.00 in
Snow Depth Not available.
UV 1 out of 12
Pollen 7.10 out of 12
Air Quality Not available.
Flu Activity Not available.
METAR KMYP 042352Z AUTO 07017G24KT 10SM BKN060 OVC085 12/06 A3065 RMK AO2

More Conditions Fewer Conditions

Pressure 30.65 in
Visibility 10.0 miles
Clouds Mostly Cloudy 6000 ft
Overcast 8500 ft
Dew Point 43 °F
Humidity 67%
Rainfall 0.00 in
Snow Depth Not available.
UV 1 out of 12
Pollen 7.10 out of 12
Air Quality Not available.
Flu Activity Not available.
METAR KMYP 042352Z AUTO 07017G24KT 10SM BKN060 OVC085 12/06 A3065 RMK AO2

More Conditions Fewer Conditions

10-Day Weather Forecast

×

Almanac

Astronomy

Jul. 04, 2015 Rise Set
Actual Time
Civil Twilight
Nautical Twilight
Astronomical Twilight
Moon
Length of Visible Light
Length of Day
Tomorrow will be .
, % of the Moon is Illuminated

Today's Extremes

State Highs State Lows

Community

WunderPhotos

Upload Photos

1,835,138 photos uploaded!

WunderBlogs® & News

Nearby

Air Quality

  Air Quality AQ Index Pollutant
Not available.

Snow Depth

Station Depth Elevation

Earthquake Activity

City Distance Mag. Time & Date
Minimum magnitude displayed is 2.5.

Coastal Water Temperatures

Place Temperature

Stations

Nearby Weather Stations

Station Location Temp. Windchill Dew Point Humidity Wind Precip. Elev Updated Type